createdAt,value
2023-01-09T00:01:25.302Z,98999.78
2023-01-09T00:03:52.350Z,98979.06
2023-01-09T00:06:19.651Z,98990.03
2023-01-09T00:08:46.645Z,98988.22
2023-01-09T00:11:13.626Z,98975.25
2023-01-09T00:13:40.647Z,98963.84
2023-01-09T00:16:08.681Z,98971.72
2023-01-09T00:18:36.579Z,98977.09
2023-01-09T00:21:06.475Z,98979.47
2023-01-09T00:23:33.587Z,98973.44
2023-01-09T00:26:17.813Z,98964.25
2023-01-09T00:28:46.643Z,98969.47
2023-01-09T00:31:14.811Z,98960.13
2023-01-09T00:33:50.443Z,98954.75
2023-01-09T00:36:17.352Z,98945.75
2023-01-09T00:38:44.257Z,98954.22
2023-01-09T00:41:17.026Z,98956.19
2023-01-09T00:43:53.303Z,98935.88
2023-01-09T00:46:25.537Z,98941.47
2023-01-09T00:48:52.633Z,98957.72
2023-01-09T00:51:20.500Z,98956.44
2023-01-09T00:53:49.333Z,98939.25
2023-01-09T00:56:19.721Z,98953.19
2023-01-09T00:58:47.164Z,98942.06
2023-01-09T01:01:14.517Z,98951.81
2023-01-09T01:03:41.583Z,98958.53
2023-01-09T01:06:27.208Z,98965.06
2023-01-09T01:08:55.851Z,98958.31
2023-01-09T01:11:23.699Z,98958.00
2023-01-09T01:13:50.821Z,98950.69
2023-01-09T01:16:18.499Z,98945.63
2023-01-09T01:18:46.001Z,98962.97
2023-01-09T01:21:14.902Z,98956.78
2023-01-09T01:23:42.036Z,98946.75
2023-01-09T01:26:13.864Z,98954.75
2023-01-09T01:28:41.463Z,98955.19
2023-01-09T01:31:09.357Z,98941.78
2023-01-09T01:33:36.537Z,98938.25
2023-01-09T01:36:08.649Z,98949.78
2023-01-09T01:38:36.352Z,98939.63
2023-01-09T01:41:04.237Z,98936.50
2023-01-09T01:44:00.148Z,98933.00
2023-01-09T01:46:32.234Z,98935.66
2023-01-09T01:49:05.660Z,98929.88
2023-01-09T01:51:37.604Z,98940.88
2023-01-09T01:54:11.161Z,98933.66
2023-01-09T01:56:47.181Z,98934.53
2023-01-09T01:59:22.265Z,98932.28
2023-01-09T02:01:57.400Z,98931.41
2023-01-09T02:04:24.803Z,98937.03
2023-01-09T02:06:55.229Z,98922.84
2023-01-09T02:09:23.308Z,98937.03
2023-01-09T02:11:53.186Z,98936.88
2023-01-09T02:14:27.871Z,98932.38
2023-01-09T02:17:47.133Z,98934.78
2023-01-09T02:20:35.940Z,98936.16
2023-01-09T02:23:32.891Z,98927.03
2023-01-09T02:26:47.765Z,98939.44
2023-01-09T02:29:33.385Z,98942.13
2023-01-09T02:32:19.260Z,98941.25
2023-01-09T02:35:23.787Z,98937.22
2023-01-09T02:38:34.287Z,98940.03
2023-01-09T02:41:24.448Z,98936.09
2023-01-09T02:44:18.286Z,98934.84
2023-01-09T02:46:45.262Z,98935.84
2023-01-09T02:49:14.039Z,98934.31
2023-01-09T02:51:52.374Z,98932.78
2023-01-09T02:54:51.810Z,98917.25
2023-01-09T02:57:42.907Z,98922.22
2023-01-09T03:00:27.588Z,98932.78
2023-01-09T03:03:27.468Z,98929.56
2023-01-09T03:06:07.971Z,98923.63
2023-01-09T03:08:48.036Z,98925.50
2023-01-09T03:11:15.395Z,98915.47
2023-01-09T03:13:50.745Z,98919.69
2023-01-09T03:16:24.461Z,98913.94
2023-01-09T03:18:52.800Z,98920.28
2023-01-09T03:21:21.777Z,98919.31
2023-01-09T03:23:58.953Z,98916.75
2023-01-09T03:26:26.757Z,98918.88
2023-01-09T03:28:53.671Z,98917.50
2023-01-09T03:31:20.661Z,98920.28
2023-01-09T03:33:47.929Z,98925.38
2023-01-09T03:36:16.812Z,98905.50
2023-01-09T03:38:43.850Z,98919.72
2023-01-09T03:41:10.829Z,98917.06
2023-01-09T03:43:38.180Z,98917.63
2023-01-09T03:46:05.568Z,98925.41
2023-01-09T03:48:32.883Z,98922.16
2023-01-09T03:50:59.904Z,98925.81
2023-01-09T03:53:28.208Z,98918.94
2023-01-09T03:55:57.157Z,98926.97
2023-01-09T03:58:25.104Z,98918.66
2023-01-09T04:00:58.465Z,98930.88
2023-01-09T04:03:25.690Z,98935.25
2023-01-09T04:05:52.719Z,98935.25
2023-01-09T04:08:19.944Z,98941.59
2023-01-09T04:10:48.784Z,98928.09
2023-01-09T04:13:15.926Z,98933.16
2023-01-09T04:15:42.835Z,98937.97
2023-01-09T04:18:10.101Z,98942.19
2023-01-09T04:20:37.163Z,98937.09
2023-01-09T04:23:04.074Z,98940.75
2023-01-09T04:25:30.968Z,98949.66
2023-01-09T04:27:57.903Z,98950.78
2023-01-09T04:30:25.131Z,98945.25
2023-01-09T04:32:52.446Z,98962.59
2023-01-09T04:35:20.001Z,98959.91
2023-01-09T04:37:46.950Z,98963.72
2023-01-09T04:40:14.614Z,98960.22
2023-01-09T04:42:42.205Z,98969.94
2023-01-09T04:45:11.276Z,98984.97
2023-01-09T04:47:38.729Z,98983.44
2023-01-09T04:50:06.305Z,98981.63
2023-01-09T04:52:33.370Z,98989.75
2023-01-09T04:55:00.322Z,98992.44
2023-01-09T04:57:27.217Z,99005.72
2023-01-09T04:59:54.392Z,99002.16
2023-01-09T05:02:21.459Z,98992.03
2023-01-09T05:04:48.455Z,98999.06
2023-01-09T05:07:15.537Z,99008.66
2023-01-09T05:09:43.490Z,99000.47
2023-01-09T05:12:10.653Z,99017.53
2023-01-09T05:14:37.536Z,99006.13
2023-01-09T05:17:05.527Z,99022.47
2023-01-09T05:19:32.430Z,99016.00
2023-01-09T05:21:59.328Z,99019.22
2023-01-09T05:24:26.245Z,99022.06
2023-01-09T05:26:53.193Z,99024.59
2023-01-09T05:29:20.074Z,99032.88
2023-01-09T05:31:47.048Z,99036.69
2023-01-09T05:34:13.987Z,99026.69
2023-01-09T05:36:41.055Z,99039.53
2023-01-09T05:39:07.968Z,99030.78
2023-01-09T05:41:34.947Z,99050.06
2023-01-09T05:44:01.849Z,99048.22
2023-01-09T05:46:28.769Z,99056.41
2023-01-09T05:48:55.665Z,99063.97
2023-01-09T05:51:22.671Z,99067.78
2023-01-09T05:53:49.816Z,99054.38
2023-01-09T05:56:16.796Z,99074.66
2023-01-09T05:58:43.724Z,99075.22
2023-01-09T06:01:10.623Z,99075.63
2023-01-09T06:03:37.579Z,99081.09
2023-01-09T06:06:04.596Z,99080.25
2023-01-09T06:08:31.488Z,99080.22
2023-01-09T06:10:58.368Z,99090.78
2023-01-09T06:13:25.327Z,99101.47
2023-01-09T06:15:52.315Z,99094.41
2023-01-09T06:18:19.236Z,99108.88
2023-01-09T06:20:46.134Z,99100.06
2023-01-09T06:23:13.724Z,99111.31
2023-01-09T06:25:41.100Z,99105.78
2023-01-09T06:28:08.101Z,99109.81
2023-01-09T06:30:35.115Z,99118.38
2023-01-09T06:33:02.116Z,99112.59
2023-01-09T06:35:29.375Z,99115.25
2023-01-09T06:37:57.002Z,99117.19
2023-01-09T06:40:23.885Z,99115.50
2023-01-09T06:42:50.833Z,99115.66
2023-01-09T06:45:18.040Z,99116.63
2023-01-09T06:47:44.981Z,99116.03
2023-01-09T06:50:12.585Z,99121.38
2023-01-09T06:52:40.169Z,99124.06
2023-01-09T06:55:08.615Z,99129.53
2023-01-09T06:57:35.827Z,99121.53
2023-01-09T07:00:03.357Z,99130.50
2023-01-09T07:02:30.252Z,99129.53
2023-01-09T07:04:57.160Z,99119.09
2023-01-09T07:07:24.227Z,99126.13
2023-01-09T07:09:51.290Z,99141.78
2023-01-09T07:12:18.244Z,99144.84
2023-01-09T07:14:45.173Z,99137.56
2023-01-09T07:17:13.648Z,99148.94
2023-01-09T07:19:40.946Z,99149.50
2023-01-09T07:22:08.173Z,99162.47
2023-01-09T07:24:35.187Z,99167.44
2023-01-09T07:27:02.990Z,99165.63
2023-01-09T07:29:30.148Z,99148.28
2023-01-09T07:31:57.355Z,99168.03
2023-01-09T07:34:24.304Z,99167.34
2023-01-09T07:36:51.746Z,99171.09
2023-01-09T07:39:18.644Z,99176.44
2023-01-09T07:41:46.238Z,99176.72
2023-01-09T07:44:15.714Z,99178.41
2023-01-09T07:46:42.657Z,99169.91
2023-01-09T07:49:09.602Z,99176.38
2023-01-09T07:51:39.091Z,99180.88
2023-01-09T07:54:06.227Z,99180.88
2023-01-09T07:56:33.127Z,99184.25
2023-01-09T07:58:59.993Z,99185.50
2023-01-09T08:01:27.158Z,99188.63
2023-01-09T08:03:54.078Z,99194.56
2023-01-09T08:06:20.969Z,99188.97
2023-01-09T08:08:47.829Z,99198.28
2023-01-09T08:11:14.755Z,99186.50
2023-01-09T08:13:41.838Z,99190.59
2023-01-09T08:16:09.060Z,99183.03
2023-01-09T08:18:36.011Z,99188.00
2023-01-09T08:21:02.952Z,99179.97
2023-01-09T08:23:29.892Z,99182.38
2023-01-09T08:25:56.762Z,99178.03
2023-01-09T08:28:23.650Z,99181.53
2023-01-09T08:30:50.581Z,99181.16
2023-01-09T08:33:17.974Z,99186.94
2023-01-09T08:35:45.203Z,99200.78
2023-01-09T08:38:12.269Z,99197.13
2023-01-09T08:40:39.241Z,99190.66
2023-01-09T08:43:25.124Z,99189.53
2023-01-09T08:46:21.058Z,99202.78
2023-01-09T08:48:48.431Z,99202.38
2023-01-09T08:51:15.656Z,99209.03
2023-01-09T08:53:42.626Z,99206.38
2023-01-09T08:56:10.225Z,99205.38
2023-01-09T08:58:37.170Z,99212.16
2023-01-09T09:01:08.130Z,99217.81
2023-01-09T09:03:35.079Z,99210.19
2023-01-09T09:06:02.010Z,99207.38
2023-01-09T09:08:28.918Z,99215.00
2023-01-09T09:10:57.310Z,99204.84
2023-01-09T09:13:24.211Z,99216.59
2023-01-09T09:15:51.236Z,99201.91
2023-01-09T09:18:18.196Z,99215.47
2023-01-09T09:20:45.273Z,99212.94
2023-01-09T09:23:12.172Z,99193.50
2023-01-09T09:25:39.533Z,99206.47
2023-01-09T09:28:07.345Z,99200.16
2023-01-09T09:30:34.714Z,99203.41
2023-01-09T09:33:04.726Z,99199.22
2023-01-09T09:35:33.762Z,99203.56
2023-01-09T09:38:05.138Z,99206.69
2023-01-09T09:40:51.350Z,99215.16
2023-01-09T09:44:29.838Z,99232.66
2023-01-09T09:47:42.523Z,99220.56
2023-01-09T09:50:46.617Z,99221.84
2023-01-09T09:53:47.559Z,99225.22
2023-01-09T09:56:18.796Z,99223.25
2023-01-09T09:58:55.946Z,99219.03
2023-01-09T10:01:42.251Z,99210.13
2023-01-09T10:04:17.011Z,99224.41
2023-01-09T10:06:50.320Z,99218.66
2023-01-09T10:09:36.068Z,99227.16
2023-01-09T10:12:30.920Z,99228.56
2023-01-09T10:15:20.037Z,99216.28
2023-01-09T10:18:34.363Z,99229.28
2023-01-09T10:21:25.368Z,99208.34
2023-01-09T10:24:22.185Z,99226.84
2023-01-09T10:26:52.512Z,99224.16
2023-01-09T10:29:41.757Z,99217.56
2023-01-09T10:32:47.290Z,99214.38
2023-01-09T10:35:47.329Z,99212.16
2023-01-09T10:38:35.371Z,99209.38
2023-01-09T10:41:14.172Z,99218.38
2023-01-09T10:44:06.801Z,99200.91
2023-01-09T10:46:47.706Z,99205.41
2023-01-09T10:49:18.621Z,99206.94
2023-01-09T10:52:10.994Z,99210.34
2023-01-09T10:54:49.103Z,99202.16
2023-01-09T10:57:54.158Z,99210.59
2023-01-09T11:00:24.148Z,99204.16
2023-01-09T11:02:52.794Z,99197.66
2023-01-09T11:05:32.712Z,99206.94
2023-01-09T11:08:13.938Z,99198.50
2023-01-09T11:11:00.758Z,99187.91
2023-01-09T11:13:34.546Z,99186.34
2023-01-09T11:16:10.731Z,99196.91
2023-01-09T11:19:04.287Z,99184.66
2023-01-09T11:21:39.235Z,99192.16
2023-01-09T11:24:21.435Z,99197.63
2023-01-09T11:26:51.977Z,99191.44
2023-01-09T11:29:21.780Z,99184.38
2023-01-09T11:32:01.775Z,99187.22
2023-01-09T11:34:34.183Z,99192.56
2023-01-09T11:37:12.139Z,99191.84
2023-01-09T11:39:45.443Z,99198.03
2023-01-09T11:42:45.148Z,99183.81
2023-01-09T11:45:17.198Z,99199.91
2023-01-09T11:47:45.091Z,99196.50
2023-01-09T11:50:19.054Z,99201.28
2023-01-09T11:52:47.380Z,99193.25
2023-01-09T11:55:19.733Z,99190.41
2023-01-09T11:57:46.755Z,99177.41
2023-01-09T12:00:29.980Z,99199.16
2023-01-09T12:03:40.819Z,99171.63
2023-01-09T12:06:57.923Z,99197.63
2023-01-09T12:09:56.274Z,99199.59
2023-01-09T12:13:00.076Z,99192.75
2023-01-09T12:15:51.130Z,99201.53
2023-01-09T12:18:44.431Z,99206.16
2023-01-09T12:21:29.056Z,99202.50
2023-01-09T12:24:39.016Z,99202.78
2023-01-09T12:27:32.391Z,99216.19
2023-01-09T12:30:29.381Z,99197.69
2023-01-09T12:33:23.937Z,99204.22
2023-01-09T12:36:20.110Z,99200.41
2023-01-09T12:38:54.764Z,99198.31
2023-01-09T12:41:47.933Z,99199.84
2023-01-09T12:44:45.088Z,99203.13
2023-01-09T12:47:31.323Z,99185.50
2023-01-09T12:50:18.780Z,99204.28
2023-01-09T12:53:10.063Z,99209.47
2023-01-09T12:55:49.504Z,99202.16
2023-01-09T12:58:52.128Z,99204.28
2023-01-09T13:01:38.831Z,99207.94
2023-01-09T13:04:20.243Z,99199.19
2023-01-09T13:07:02.882Z,99203.00
2023-01-09T13:09:47.779Z,99206.22
2023-01-09T13:12:21.751Z,99202.84
2023-01-09T13:15:19.793Z,99209.31
2023-01-09T13:17:54.627Z,99222.00
2023-01-09T13:20:28.238Z,99225.88
2023-01-09T13:22:55.533Z,99235.19
2023-01-09T13:25:44.551Z,99242.38
2023-01-09T13:28:31.731Z,99255.47
2023-01-09T13:31:17.569Z,99249.66
2023-01-09T13:33:52.612Z,99243.72
2023-01-09T13:36:46.705Z,99252.63
2023-01-09T13:39:29.219Z,99256.44
2023-01-09T13:42:45.888Z,99257.81
2023-01-09T13:45:34.428Z,99250.75
2023-01-09T13:48:17.599Z,99262.44
2023-01-09T13:50:47.058Z,99258.78
2023-01-09T13:53:19.804Z,99261.31
2023-01-09T13:56:06.722Z,99263.16
2023-01-09T13:58:40.255Z,99270.91
2023-01-09T14:01:39.692Z,99276.56
2023-01-09T14:04:34.380Z,99278.47
2023-01-09T14:07:23.171Z,99282.19
2023-01-09T14:09:57.048Z,99300.75
2023-01-09T14:12:25.178Z,99297.06
2023-01-09T14:14:55.991Z,99290.63
2023-01-09T14:17:34.609Z,99308.06
2023-01-09T14:20:23.580Z,99321.72
2023-01-09T14:23:18.166Z,99317.72
2023-01-09T14:25:44.961Z,99313.97
2023-01-09T14:28:26.628Z,99334.00
2023-01-09T14:30:53.405Z,99338.78
2023-01-09T14:33:20.318Z,99344.13
2023-01-09T14:36:13.110Z,99359.44
2023-01-09T14:38:48.265Z,99350.84
2023-01-09T14:41:51.593Z,99371.75
2023-01-09T14:44:59.371Z,99361.16
2023-01-09T14:47:45.263Z,99363.50
2023-01-09T14:50:25.688Z,99376.94
2023-01-09T14:53:03.869Z,99392.03
2023-01-09T14:55:46.985Z,99387.19
2023-01-09T14:58:34.401Z,99409.88
2023-01-09T15:01:06.701Z,99413.41
2023-01-09T15:03:59.112Z,99427.63
2023-01-09T15:06:31.079Z,99427.78
2023-01-09T15:09:07.089Z,99447.09
2023-01-09T15:11:37.311Z,99441.00
2023-01-09T15:14:07.245Z,99454.88
2023-01-09T15:16:34.405Z,99458.25
2023-01-09T15:19:06.270Z,99465.19
2023-01-09T15:21:33.485Z,99472.56
2023-01-09T15:24:12.943Z,99474.88
2023-01-09T15:26:40.300Z,99480.09
2023-01-09T15:29:20.506Z,99479.84
2023-01-09T15:31:53.766Z,99481.69
2023-01-09T15:34:24.648Z,99490.53
2023-01-09T15:36:53.164Z,99501.63
2023-01-09T15:39:27.006Z,99502.50
2023-01-09T15:42:13.827Z,99499.91
2023-01-09T15:44:43.838Z,99504.31
2023-01-09T15:47:23.972Z,99498.81
2023-01-09T15:49:51.308Z,99504.56
2023-01-09T15:52:19.349Z,99508.47
2023-01-09T15:54:46.924Z,99512.47
2023-01-09T15:57:25.811Z,99513.22
2023-01-09T16:00:26.336Z,99525.25
2023-01-09T16:03:11.908Z,99521.16
2023-01-09T16:05:52.234Z,99550.19
2023-01-09T16:08:34.364Z,99543.97
2023-01-09T16:11:10.552Z,99552.75
2023-01-09T16:13:45.490Z,99554.22
2023-01-09T16:16:13.940Z,99557.00
2023-01-09T16:18:52.651Z,99555.31
2023-01-09T16:21:30.885Z,99578.75
2023-01-09T16:24:07.277Z,99575.00
2023-01-09T16:26:34.830Z,99570.72
2023-01-09T16:29:37.712Z,99582.28
2023-01-09T16:32:06.802Z,99587.78
2023-01-09T16:34:35.494Z,99589.72
2023-01-09T16:37:04.869Z,99587.19
2023-01-09T16:39:31.819Z,99593.59
2023-01-09T16:42:17.593Z,99591.66
2023-01-09T16:44:44.550Z,99603.81
2023-01-09T16:47:12.620Z,99598.09
2023-01-09T16:49:39.582Z,99614.03
2023-01-09T16:52:16.797Z,99626.53
2023-01-09T16:54:46.635Z,99622.63
2023-01-09T16:57:18.814Z,99634.69
2023-01-09T16:59:46.613Z,99640.78
2023-01-09T17:02:20.001Z,99638.56
2023-01-09T17:04:47.164Z,99644.88
2023-01-09T17:07:16.143Z,99648.66
2023-01-09T17:09:43.917Z,99645.03
2023-01-09T17:12:22.269Z,99651.94
2023-01-09T17:14:49.818Z,99652.56
2023-01-09T17:17:17.946Z,99658.75
2023-01-09T17:19:46.748Z,99659.97
2023-01-09T17:22:14.423Z,99670.53
2023-01-09T17:25:00.154Z,99668.34
2023-01-09T17:27:52.995Z,99678.56
2023-01-09T17:30:20.768Z,99680.41
2023-01-09T17:32:48.752Z,99683.81
2023-01-09T17:35:16.106Z,99690.13
2023-01-09T17:37:43.570Z,99692.53
2023-01-09T17:40:22.931Z,99699.38
2023-01-09T17:42:49.853Z,99709.81
2023-01-09T17:45:16.859Z,99706.91
2023-01-09T17:47:43.784Z,99706.78
2023-01-09T17:50:20.053Z,99719.56
2023-01-09T17:52:48.474Z,99724.19
2023-01-09T17:55:15.772Z,99748.78
2023-01-09T17:57:44.021Z,99763.38
2023-01-09T18:00:36.934Z,99756.69
2023-01-09T18:03:05.123Z,99771.03
2023-01-09T18:05:32.125Z,99752.28
2023-01-09T18:07:59.261Z,99755.44
2023-01-09T18:10:30.136Z,99763.59
2023-01-09T18:12:57.134Z,99778.19
2023-01-09T18:15:24.519Z,99772.97
2023-01-09T18:17:52.349Z,99786.97
2023-01-09T18:20:19.743Z,99785.13
2023-01-09T18:22:47.568Z,99782.84
2023-01-09T18:25:14.513Z,99782.59
2023-01-09T18:27:41.660Z,99812.28
2023-01-09T18:30:09.854Z,99798.63
2023-01-09T18:32:39.180Z,99795.34
2023-01-09T18:35:06.258Z,99791.66
2023-01-09T18:37:36.001Z,99803.34
2023-01-09T18:40:03.276Z,99817.72
2023-01-09T18:42:30.219Z,99816.88
2023-01-09T18:44:57.191Z,99823.19
2023-01-09T18:47:24.204Z,99830.34
2023-01-09T18:49:51.172Z,99834.13
2023-01-09T18:52:18.058Z,99846.53
2023-01-09T18:54:45.042Z,99837.28
2023-01-09T18:57:11.950Z,99854.16
2023-01-09T18:59:38.928Z,99854.16
2023-01-09T19:02:06.863Z,99847.59
2023-01-09T19:04:34.632Z,99869.38
2023-01-09T19:07:01.683Z,99862.31
2023-01-09T19:09:28.587Z,99872.06
2023-01-09T19:11:55.497Z,99869.72
2023-01-09T19:14:22.395Z,99883.59
2023-01-09T19:16:49.485Z,99891.53
2023-01-09T19:19:16.452Z,99886.75
2023-01-09T19:21:45.468Z,99892.63
2023-01-09T19:24:12.528Z,99903.94
2023-01-09T19:26:39.463Z,99894.78
2023-01-09T19:29:06.439Z,99912.41
2023-01-09T19:31:34.139Z,99922.13
2023-01-09T19:34:01.852Z,99923.34
2023-01-09T19:36:29.221Z,99919.31
2023-01-09T19:39:03.274Z,99932.56
2023-01-09T19:41:30.707Z,99932.91
2023-01-09T19:43:59.870Z,99940.28
2023-01-09T19:46:27.045Z,99940.53
2023-01-09T19:48:54.292Z,99947.81
2023-01-09T19:51:22.622Z,99948.56
2023-01-09T19:54:03.458Z,99955.84
2023-01-09T19:56:35.563Z,99954.00
2023-01-09T19:59:04.537Z,99959.59
2023-01-09T20:01:38.775Z,99968.34
2023-01-09T20:04:13.413Z,99975.84
2023-01-09T20:06:43.906Z,99985.59
2023-01-09T20:09:12.612Z,99981.31
2023-01-09T20:11:41.277Z,99986.47
2023-01-09T20:14:15.187Z,100002.72
2023-01-09T20:16:43.343Z,99993.66
2023-01-09T20:19:12.753Z,100006.81
2023-01-09T20:21:39.757Z,100013.19
2023-01-09T20:24:08.022Z,100017.84
2023-01-09T20:26:36.849Z,100030.56
2023-01-09T20:29:04.381Z,100034.59
2023-01-09T20:31:32.487Z,100030.78
2023-01-09T20:33:59.897Z,100043.50
2023-01-09T20:36:30.026Z,100048.75
2023-01-09T20:39:02.076Z,100061.34
2023-01-09T20:41:30.778Z,100057.94
2023-01-09T20:44:01.204Z,100063.28
2023-01-09T20:46:33.002Z,100062.22
2023-01-09T20:49:03.493Z,100071.72
2023-01-09T20:51:31.142Z,100075.25
2023-01-09T20:53:58.583Z,100072.34
2023-01-09T20:56:31.936Z,100087.34
2023-01-09T20:59:00.541Z,100087.34
2023-01-09T21:01:28.590Z,100092.38
2023-01-09T21:03:58.006Z,100089.16
2023-01-09T21:06:26.205Z,100096.31
2023-01-09T21:08:53.338Z,100108.28
2023-01-09T21:11:22.480Z,100104.03
2023-01-09T21:13:49.997Z,100106.13
2023-01-09T21:16:21.372Z,100099.97
2023-01-09T21:18:49.066Z,100114.09
2023-01-09T21:21:21.534Z,100117.78
2023-01-09T21:23:57.917Z,100122.31
2023-01-09T21:26:28.844Z,100126.81
2023-01-09T21:28:58.063Z,100125.50
2023-01-09T21:31:34.305Z,100128.28
2023-01-09T21:34:07.832Z,100138.22
2023-01-09T21:36:35.936Z,100148.16
2023-01-09T21:39:07.680Z,100147.59
2023-01-09T21:41:54.240Z,100151.47
2023-01-09T21:44:39.946Z,100155.84
2023-01-09T21:47:06.970Z,100152.19
2023-01-09T21:49:36.006Z,100166.53
2023-01-09T21:52:04.508Z,100161.59
2023-01-09T21:54:31.970Z,100172.94
2023-01-09T21:56:59.372Z,100178.19
2023-01-09T21:59:26.628Z,100175.59
2023-01-09T22:01:53.658Z,100184.69
2023-01-09T22:04:23.693Z,100188.97
2023-01-09T22:06:50.703Z,100196.88
2023-01-09T22:09:18.143Z,100198.81
2023-01-09T22:11:45.137Z,100201.28
2023-01-09T22:14:15.044Z,100211.75
2023-01-09T22:16:43.690Z,100225.22
2023-01-09T22:19:12.649Z,100227.59
2023-01-09T22:21:40.146Z,100221.28
2023-01-09T22:24:07.408Z,100225.44
2023-01-09T22:26:35.701Z,100237.66
2023-01-09T22:29:02.656Z,100230.13
2023-01-09T22:31:29.797Z,100234.75
2023-01-09T22:33:58.617Z,100243.00
2023-01-09T22:36:28.856Z,100253.06
2023-01-09T22:38:58.063Z,100257.56
2023-01-09T22:41:27.107Z,100274.16
2023-01-09T22:43:54.026Z,100264.72
2023-01-09T22:46:21.261Z,100277.56
2023-01-09T22:48:48.236Z,100285.38
2023-01-09T22:51:20.678Z,100283.88
2023-01-09T22:53:48.002Z,100300.38
2023-01-09T22:56:21.563Z,100310.09
2023-01-09T22:58:53.364Z,100304.00
2023-01-09T23:01:22.175Z,100300.16
2023-01-09T23:03:49.268Z,100302.19
2023-01-09T23:06:22.104Z,100311.72
2023-01-09T23:08:50.826Z,100315.25
2023-01-09T23:11:46.868Z,100305.72
2023-01-09T23:14:14.050Z,100314.31
2023-01-09T23:16:41.175Z,100314.59
2023-01-09T23:19:17.309Z,100315.63
2023-01-09T23:21:45.195Z,100320.91
2023-01-09T23:24:14.559Z,100327.97
2023-01-09T23:26:43.565Z,100337.69
2023-01-09T23:29:12.337Z,100348.38
2023-01-09T23:31:39.603Z,100352.03
2023-01-09T23:34:08.243Z,100351.28
2023-01-09T23:36:36.148Z,100346.78
2023-01-09T23:39:04.205Z,100351.38
2023-01-09T23:41:49.539Z,100355.00
2023-01-09T23:44:16.581Z,100349.97
2023-01-09T23:46:43.555Z,100355.09
2023-01-09T23:49:10.519Z,100364.75
2023-01-09T23:51:37.485Z,100364.94
2023-01-09T23:54:04.500Z,100373.38
2023-01-09T23:56:33.820Z,100373.38
2023-01-09T23:59:02.215Z,100376.22
